sensor_id;sensor_type;location;lat;lon;timestamp;P1;durP1;ratioP1;P2;durP2;ratioP2
47251;SDS011;32991;51.374;11.586;2022-08-19T00:01:34;587.75;;;526.40;;
47251;SDS011;32991;51.374;11.586;2022-08-19T00:04:04;568.42;;;509.08;;
47251;SDS011;32991;51.374;11.586;2022-08-19T00:06:34;580.90;;;522.28;;
47251;SDS011;32991;51.374;11.586;2022-08-19T00:09:03;571.47;;;512.80;;
47251;SDS011;32991;51.374;11.586;2022-08-19T00:11:32;542.50;;;486.83;;
47251;SDS011;32991;51.374;11.586;2022-08-19T00:14:00;576.42;;;515.53;;
47251;SDS011;32991;51.374;11.586;2022-08-19T00:16:28;558.10;;;499.25;;
47251;SDS011;32991;51.374;11.586;2022-08-19T00:18:54;607.65;;;546.03;;
47251;SDS011;32991;51.374;11.586;2022-08-19T00:21:25;486.48;;;434.98;;
47251;SDS011;32991;51.374;11.586;2022-08-19T00:23:55;552.05;;;496.63;;
47251;SDS011;32991;51.374;11.586;2022-08-19T00:26:26;577.15;;;518.10;;
47251;SDS011;32991;51.374;11.586;2022-08-19T00:28:54;553.22;;;493.70;;
47251;SDS011;32991;51.374;11.586;2022-08-19T00:31:21;565.30;;;506.08;;
47251;SDS011;32991;51.374;11.586;2022-08-19T00:33:48;502.10;;;450.55;;
47251;SDS011;32991;51.374;11.586;2022-08-19T00:36:16;551.58;;;494.70;;
47251;SDS011;32991;51.374;11.586;2022-08-19T00:38:43;569.95;;;509.50;;
47251;SDS011;32991;51.374;11.586;2022-08-19T00:41:12;537.63;;;479.73;;
47251;SDS011;32991;51.374;11.586;2022-08-19T00:43:40;571.53;;;510.38;;
47251;SDS011;32991;51.374;11.586;2022-08-19T00:46:07;576.05;;;517.78;;
47251;SDS011;32991;51.374;11.586;2022-08-19T00:48:34;574.75;;;514.05;;
47251;SDS011;32991;51.374;11.586;2022-08-19T00:51:03;537.33;;;478.48;;
47251;SDS011;32991;51.374;11.586;2022-08-19T00:53:31;618.00;;;555.85;;
47251;SDS011;32991;51.374;11.586;2022-08-19T00:56:00;565.42;;;504.38;;
47251;SDS011;32991;51.374;11.586;2022-08-19T00:58:30;591.08;;;528.67;;
47251;SDS011;32991;51.374;11.586;2022-08-19T01:01:00;565.67;;;504.35;;
47251;SDS011;32991;51.374;11.586;2022-08-19T01:03:28;571.67;;;512.08;;
47251;SDS011;32991;51.374;11.586;2022-08-19T01:06:15;537.67;;;479.20;;
47251;SDS011;32991;51.374;11.586;2022-08-19T01:08:46;575.28;;;513.13;;
47251;SDS011;32991;51.374;11.586;2022-08-19T01:11:15;601.92;;;539.40;;
47251;SDS011;32991;51.374;11.586;2022-08-19T01:13:42;592.78;;;532.22;;
47251;SDS011;32991;51.374;11.586;2022-08-19T01:16:15;586.90;;;525.15;;
47251;SDS011;32991;51.374;11.586;2022-08-19T01:18:44;590.08;;;528.78;;
47251;SDS011;32991;51.374;11.586;2022-08-19T01:23:59;586.20;;;525.30;;
47251;SDS011;32991;51.374;11.586;2022-08-19T01:26:26;574.80;;;518.08;;
47251;SDS011;32991;51.374;11.586;2022-08-19T01:28:57;599.08;;;537.33;;
47251;SDS011;32991;51.374;11.586;2022-08-19T01:31:27;573.67;;;515.58;;
47251;SDS011;32991;51.374;11.586;2022-08-19T01:33:58;571.53;;;511.35;;
47251;SDS011;32991;51.374;11.586;2022-08-19T01:36:32;604.28;;;543.03;;
47251;SDS011;32991;51.374;11.586;2022-08-19T01:39:10;582.50;;;524.50;;
47251;SDS011;32991;51.374;11.586;2022-08-19T01:41:38;589.75;;;528.40;;
47251;SDS011;32991;51.374;11.586;2022-08-19T01:44:06;606.45;;;543.63;;
47251;SDS011;32991;51.374;11.586;2022-08-19T01:46:44;577.85;;;520.20;;
47251;SDS011;32991;51.374;11.586;2022-08-19T01:49:14;611.72;;;552.38;;
47251;SDS011;32991;51.374;11.586;2022-08-19T01:51:43;581.22;;;521.05;;
47251;SDS011;32991;51.374;11.586;2022-08-19T01:54:11;600.88;;;539.85;;
47251;SDS011;32991;51.374;11.586;2022-08-19T01:56:53;603.65;;;543.75;;
47251;SDS011;32991;51.374;11.586;2022-08-19T01:59:26;609.53;;;551.10;;
47251;SDS011;32991;51.374;11.586;2022-08-19T02:01:52;591.42;;;530.97;;
47251;SDS011;32991;51.374;11.586;2022-08-19T02:04:19;573.50;;;513.45;;
47251;SDS011;32991;51.374;11.586;2022-08-19T02:06:47;566.15;;;507.55;;
47251;SDS011;32991;51.374;11.586;2022-08-19T02:09:14;561.08;;;501.00;;
47251;SDS011;32991;51.374;11.586;2022-08-19T02:11:42;602.30;;;539.00;;
47251;SDS011;32991;51.374;11.586;2022-08-19T02:14:09;582.50;;;521.70;;
47251;SDS011;32991;51.374;11.586;2022-08-19T02:16:35;583.47;;;520.38;;
47251;SDS011;32991;51.374;11.586;2022-08-19T02:19:03;573.65;;;515.13;;
47251;SDS011;32991;51.374;11.586;2022-08-19T02:21:31;592.28;;;529.90;;
47251;SDS011;32991;51.374;11.586;2022-08-19T02:23:58;549.25;;;489.75;;
47251;SDS011;32991;51.374;11.586;2022-08-19T02:26:25;604.92;;;541.42;;
47251;SDS011;32991;51.374;11.586;2022-08-19T02:28:53;592.00;;;531.22;;
47251;SDS011;32991;51.374;11.586;2022-08-19T02:31:21;594.17;;;529.15;;
47251;SDS011;32991;51.374;11.586;2022-08-19T02:33:51;588.38;;;526.78;;
47251;SDS011;32991;51.374;11.586;2022-08-19T02:36:22;589.92;;;529.08;;
47251;SDS011;32991;51.374;11.586;2022-08-19T02:38:50;616.30;;;551.45;;
47251;SDS011;32991;51.374;11.586;2022-08-19T02:41:30;613.33;;;547.28;;
47251;SDS011;32991;51.374;11.586;2022-08-19T02:43:59;611.78;;;548.80;;
47251;SDS011;32991;51.374;11.586;2022-08-19T02:46:47;591.13;;;527.42;;
47251;SDS011;32991;51.374;11.586;2022-08-19T02:49:17;550.00;;;489.73;;
47251;SDS011;32991;51.374;11.586;2022-08-19T02:51:45;591.78;;;527.83;;
47251;SDS011;32991;51.374;11.586;2022-08-19T02:54:12;632.65;;;568.17;;
47251;SDS011;32991;51.374;11.586;2022-08-19T02:56:41;615.17;;;550.20;;
47251;SDS011;32991;51.374;11.586;2022-08-19T02:59:09;603.53;;;542.30;;
47251;SDS011;32991;51.374;11.586;2022-08-19T03:01:37;610.90;;;547.63;;
47251;SDS011;32991;51.374;11.586;2022-08-19T03:04:06;587.33;;;522.55;;
47251;SDS011;32991;51.374;11.586;2022-08-19T03:06:38;640.15;;;574.83;;
47251;SDS011;32991;51.374;11.586;2022-08-19T03:09:06;632.25;;;570.28;;
47251;SDS011;32991;51.374;11.586;2022-08-19T03:11:34;613.85;;;552.42;;
47251;SDS011;32991;51.374;11.586;2022-08-19T03:14:02;603.13;;;540.28;;
47251;SDS011;32991;51.374;11.586;2022-08-19T03:16:30;604.05;;;539.47;;
47251;SDS011;32991;51.374;11.586;2022-08-19T03:18:59;587.60;;;525.92;;
47251;SDS011;32991;51.374;11.586;2022-08-19T03:21:29;583.50;;;519.47;;
47251;SDS011;32991;51.374;11.586;2022-08-19T03:23:58;586.58;;;523.85;;
47251;SDS011;32991;51.374;11.586;2022-08-19T03:26:27;588.15;;;524.33;;
47251;SDS011;32991;51.374;11.586;2022-08-19T03:28:55;605.15;;;542.33;;
47251;SDS011;32991;51.374;11.586;2022-08-19T03:31:24;594.85;;;531.65;;
47251;SDS011;32991;51.374;11.586;2022-08-19T03:34:15;507.67;;;452.10;;
47251;SDS011;32991;51.374;11.586;2022-08-19T03:36:44;626.72;;;562.33;;
47251;SDS011;32991;51.374;11.586;2022-08-19T03:39:12;597.60;;;530.13;;
47251;SDS011;32991;51.374;11.586;2022-08-19T03:41:41;598.08;;;533.17;;
47251;SDS011;32991;51.374;11.586;2022-08-19T03:44:21;620.95;;;559.85;;
47251;SDS011;32991;51.374;11.586;2022-08-19T03:46:49;532.55;;;473.98;;
47251;SDS011;32991;51.374;11.586;2022-08-19T03:49:18;588.25;;;524.50;;
47251;SDS011;32991;51.374;11.586;2022-08-19T03:51:46;608.70;;;544.85;;
47251;SDS011;32991;51.374;11.586;2022-08-19T03:54:15;581.42;;;517.60;;
47251;SDS011;32991;51.374;11.586;2022-08-19T03:56:45;595.95;;;533.95;;
47251;SDS011;32991;51.374;11.586;2022-08-19T03:59:17;575.97;;;513.15;;
47251;SDS011;32991;51.374;11.586;2022-08-19T04:01:55;597.90;;;536.15;;
47251;SDS011;32991;51.374;11.586;2022-08-19T04:04:23;574.42;;;512.65;;
47251;SDS011;32991;51.374;11.586;2022-08-19T04:06:54;586.63;;;524.72;;
47251;SDS011;32991;51.374;11.586;2022-08-19T04:09:22;614.53;;;551.38;;
47251;SDS011;32991;51.374;11.586;2022-08-19T04:11:49;537.40;;;469.20;;
47251;SDS011;32991;51.374;11.586;2022-08-19T04:14:25;537.40;;;478.48;;
47251;SDS011;32991;51.374;11.586;2022-08-19T04:16:56;601.50;;;538.72;;
47251;SDS011;32991;51.374;11.586;2022-08-19T04:19:25;581.55;;;519.42;;
47251;SDS011;32991;51.374;11.586;2022-08-19T04:21:53;558.97;;;499.33;;
47251;SDS011;32991;51.374;11.586;2022-08-19T04:24:21;578.58;;;519.10;;
47251;SDS011;32991;51.374;11.586;2022-08-19T04:26:48;585.58;;;522.92;;
47251;SDS011;32991;51.374;11.586;2022-08-19T04:29:16;593.72;;;531.92;;
47251;SDS011;32991;51.374;11.586;2022-08-19T04:31:48;582.63;;;523.25;;
47251;SDS011;32991;51.374;11.586;2022-08-19T04:34:16;577.65;;;518.80;;
47251;SDS011;32991;51.374;11.586;2022-08-19T04:36:48;602.67;;;537.57;;
47251;SDS011;32991;51.374;11.586;2022-08-19T04:39:18;580.42;;;518.40;;
47251;SDS011;32991;51.374;11.586;2022-08-19T04:41:47;608.55;;;547.60;;
47251;SDS011;32991;51.374;11.586;2022-08-19T04:44:32;593.72;;;531.80;;
47251;SDS011;32991;51.374;11.586;2022-08-19T04:47:01;564.13;;;493.20;;
47251;SDS011;32991;51.374;11.586;2022-08-19T04:49:36;577.58;;;517.17;;
47251;SDS011;32991;51.374;11.586;2022-08-19T04:52:04;575.05;;;514.92;;
47251;SDS011;32991;51.374;11.586;2022-08-19T04:54:30;561.53;;;501.25;;
47251;SDS011;32991;51.374;11.586;2022-08-19T04:57:04;555.13;;;491.80;;
47251;SDS011;32991;51.374;11.586;2022-08-19T04:59:34;591.30;;;530.95;;
47251;SDS011;32991;51.374;11.586;2022-08-19T05:02:01;557.95;;;497.92;;
47251;SDS011;32991;51.374;11.586;2022-08-19T05:04:30;565.83;;;504.23;;
47251;SDS011;32991;51.374;11.586;2022-08-19T05:06:59;555.63;;;491.08;;
47251;SDS011;32991;51.374;11.586;2022-08-19T05:09:29;566.45;;;507.05;;
47251;SDS011;32991;51.374;11.586;2022-08-19T05:12:17;551.95;;;490.20;;
47251;SDS011;32991;51.374;11.586;2022-08-19T05:14:44;544.90;;;487.65;;
47251;SDS011;32991;51.374;11.586;2022-08-19T05:17:13;581.00;;;521.28;;
47251;SDS011;32991;51.374;11.586;2022-08-19T05:20:01;575.42;;;516.90;;
47251;SDS011;32991;51.374;11.586;2022-08-19T05:22:47;570.72;;;510.75;;
47251;SDS011;32991;51.374;11.586;2022-08-19T05:25:16;493.73;;;441.92;;
47251;SDS011;32991;51.374;11.586;2022-08-19T05:27:46;563.90;;;504.17;;
47251;SDS011;32991;51.374;11.586;2022-08-19T05:30:13;591.70;;;529.33;;
47251;SDS011;32991;51.374;11.586;2022-08-19T05:32:41;560.85;;;490.48;;
47251;SDS011;32991;51.374;11.586;2022-08-19T05:35:09;568.03;;;505.25;;
47251;SDS011;32991;51.374;11.586;2022-08-19T05:37:36;538.35;;;480.90;;
47251;SDS011;32991;51.374;11.586;2022-08-19T05:40:06;547.63;;;489.50;;
47251;SDS011;32991;51.374;11.586;2022-08-19T05:42:34;534.03;;;474.45;;
47251;SDS011;32991;51.374;11.586;2022-08-19T05:45:01;474.92;;;417.00;;
47251;SDS011;32991;51.374;11.586;2022-08-19T05:47:28;571.80;;;512.10;;
47251;SDS011;32991;51.374;11.586;2022-08-19T05:49:55;543.88;;;485.17;;
47251;SDS011;32991;51.374;11.586;2022-08-19T05:52:21;546.90;;;489.90;;
47251;SDS011;32991;51.374;11.586;2022-08-19T05:54:52;547.92;;;491.13;;
47251;SDS011;32991;51.374;11.586;2022-08-19T05:57:22;505.80;;;451.15;;
47251;SDS011;32991;51.374;11.586;2022-08-19T05:59:50;500.98;;;446.65;;
47251;SDS011;32991;51.374;11.586;2022-08-19T06:02:27;511.73;;;456.92;;
47251;SDS011;32991;51.374;11.586;2022-08-19T06:04:57;577.30;;;517.92;;
47251;SDS011;32991;51.374;11.586;2022-08-19T06:07:24;538.45;;;479.90;;
47251;SDS011;32991;51.374;11.586;2022-08-19T06:09:51;569.08;;;508.65;;
47251;SDS011;32991;51.374;11.586;2022-08-19T06:12:36;548.95;;;489.20;;
47251;SDS011;32991;51.374;11.586;2022-08-19T06:15:05;516.75;;;460.90;;
47251;SDS011;32991;51.374;11.586;2022-08-19T06:17:34;555.03;;;490.75;;
47251;SDS011;32991;51.374;11.586;2022-08-19T06:20:05;531.90;;;474.02;;
47251;SDS011;32991;51.374;11.586;2022-08-19T06:22:37;499.85;;;447.30;;
47251;SDS011;32991;51.374;11.586;2022-08-19T06:25:05;513.28;;;448.90;;
47251;SDS011;32991;51.374;11.586;2022-08-19T06:27:35;537.22;;;483.13;;
47251;SDS011;32991;51.374;11.586;2022-08-19T06:30:13;536.83;;;477.65;;
47251;SDS011;32991;51.374;11.586;2022-08-19T06:32:41;550.58;;;494.30;;
47251;SDS011;32991;51.374;11.586;2022-08-19T06:35:08;560.47;;;500.48;;
47251;SDS011;32991;51.374;11.586;2022-08-19T06:37:35;573.95;;;512.00;;
47251;SDS011;32991;51.374;11.586;2022-08-19T06:40:08;526.70;;;469.75;;
47251;SDS011;32991;51.374;11.586;2022-08-19T06:42:37;546.33;;;488.38;;
47251;SDS011;32991;51.374;11.586;2022-08-19T06:45:10;575.80;;;515.63;;
47251;SDS011;32991;51.374;11.586;2022-08-19T06:47:37;521.67;;;466.95;;
47251;SDS011;32991;51.374;11.586;2022-08-19T06:50:04;552.10;;;494.17;;
47251;SDS011;32991;51.374;11.586;2022-08-19T06:52:32;537.65;;;479.40;;
47251;SDS011;32991;51.374;11.586;2022-08-19T06:55:02;545.22;;;485.30;;
47251;SDS011;32991;51.374;11.586;2022-08-19T06:57:31;555.47;;;495.05;;
47251;SDS011;32991;51.374;11.586;2022-08-19T06:59:59;547.47;;;489.35;;
47251;SDS011;32991;51.374;11.586;2022-08-19T07:02:26;591.33;;;527.20;;
47251;SDS011;32991;51.374;11.586;2022-08-19T07:04:53;514.47;;;458.63;;
47251;SDS011;32991;51.374;11.586;2022-08-19T07:07:24;546.47;;;486.58;;
47251;SDS011;32991;51.374;11.586;2022-08-19T07:09:51;559.33;;;500.83;;
47251;SDS011;32991;51.374;11.586;2022-08-19T07:12:29;509.13;;;453.65;;
47251;SDS011;32991;51.374;11.586;2022-08-19T07:15:01;538.22;;;481.35;;
47251;SDS011;32991;51.374;11.586;2022-08-19T07:17:30;495.52;;;442.05;;
47251;SDS011;32991;51.374;11.586;2022-08-19T07:20:00;529.00;;;472.02;;
47251;SDS011;32991;51.374;11.586;2022-08-19T07:22:32;521.42;;;464.15;;
47251;SDS011;32991;51.374;11.586;2022-08-19T07:25:00;529.95;;;472.40;;
47251;SDS011;32991;51.374;11.586;2022-08-19T07:27:29;511.85;;;455.70;;
47251;SDS011;32991;51.374;11.586;2022-08-19T07:29:59;534.33;;;475.75;;
47251;SDS011;32991;51.374;11.586;2022-08-19T07:32:26;534.75;;;475.08;;
47251;SDS011;32991;51.374;11.586;2022-08-19T07:34:53;531.53;;;457.85;;
47251;SDS011;32991;51.374;11.586;2022-08-19T07:37:22;525.15;;;460.08;;
47251;SDS011;32991;51.374;11.586;2022-08-19T07:39:58;493.02;;;440.55;;
47251;SDS011;32991;51.374;11.586;2022-08-19T07:42:26;484.48;;;419.90;;
47251;SDS011;32991;51.374;11.586;2022-08-19T07:44:54;531.45;;;471.52;;
47251;SDS011;32991;51.374;11.586;2022-08-19T07:47:21;553.25;;;494.20;;
47251;SDS011;32991;51.374;11.586;2022-08-19T07:50:09;538.67;;;480.17;;
47251;SDS011;32991;51.374;11.586;2022-08-19T07:52:37;538.92;;;470.85;;
47251;SDS011;32991;51.374;11.586;2022-08-19T07:55:07;572.13;;;509.90;;
47251;SDS011;32991;51.374;11.586;2022-08-19T07:57:56;502.58;;;443.10;;
47251;SDS011;32991;51.374;11.586;2022-08-19T08:00:23;556.97;;;499.20;;
47251;SDS011;32991;51.374;11.586;2022-08-19T08:02:51;561.08;;;474.63;;
47251;SDS011;32991;51.374;11.586;2022-08-19T08:05:21;556.70;;;492.90;;
47251;SDS011;32991;51.374;11.586;2022-08-19T08:08:13;539.22;;;480.05;;
47251;SDS011;32991;51.374;11.586;2022-08-19T08:10:59;531.70;;;474.40;;
47251;SDS011;32991;51.374;11.586;2022-08-19T08:13:27;556.90;;;496.92;;
47251;SDS011;32991;51.374;11.586;2022-08-19T08:15:54;579.80;;;468.65;;
47251;SDS011;32991;51.374;11.586;2022-08-19T08:18:25;546.88;;;481.60;;
47251;SDS011;32991;51.374;11.586;2022-08-19T08:20:53;525.53;;;471.35;;
47251;SDS011;32991;51.374;11.586;2022-08-19T08:23:21;544.38;;;484.90;;
47251;SDS011;32991;51.374;11.586;2022-08-19T08:25:49;493.75;;;437.13;;
47251;SDS011;32991;51.374;11.586;2022-08-19T08:28:17;553.55;;;493.98;;
47251;SDS011;32991;51.374;11.586;2022-08-19T08:30:46;530.00;;;471.90;;
47251;SDS011;32991;51.374;11.586;2022-08-19T08:33:20;506.63;;;423.38;;
47251;SDS011;32991;51.374;11.586;2022-08-19T08:38:37;585.85;;;514.78;;
47251;SDS011;32991;51.374;11.586;2022-08-19T08:41:51;555.58;;;488.48;;
47251;SDS011;32991;51.374;11.586;2022-08-19T08:44:14;511.45;;;456.20;;
47251;SDS011;32991;51.374;11.586;2022-08-19T08:46:51;559.42;;;499.10;;
47251;SDS011;32991;51.374;11.586;2022-08-19T08:49:26;562.72;;;500.63;;
47251;SDS011;32991;51.374;11.586;2022-08-19T08:52:33;537.38;;;456.15;;
47251;SDS011;32991;51.374;11.586;2022-08-19T08:55:00;601.33;;;523.25;;
47251;SDS011;32991;51.374;11.586;2022-08-19T08:57:38;565.55;;;474.10;;
47251;SDS011;32991;51.374;11.586;2022-08-19T09:00:18;580.75;;;488.42;;
47251;SDS011;32991;51.374;11.586;2022-08-19T09:02:53;581.75;;;497.73;;
47251;SDS011;32991;51.374;11.586;2022-08-19T09:05:21;635.13;;;543.08;;
47251;SDS011;32991;51.374;11.586;2022-08-19T09:10:54;582.58;;;508.90;;
47251;SDS011;32991;51.374;11.586;2022-08-19T09:13:42;611.65;;;536.17;;
47251;SDS011;32991;51.374;11.586;2022-08-19T09:16:20;635.67;;;545.55;;
47251;SDS011;32991;51.374;11.586;2022-08-19T09:18:58;599.97;;;518.35;;
47251;SDS011;32991;51.374;11.586;2022-08-19T09:21:31;613.85;;;545.35;;
47251;SDS011;32991;51.374;11.586;2022-08-19T09:23:59;548.03;;;482.40;;
47251;SDS011;32991;51.374;11.586;2022-08-19T09:26:29;612.30;;;532.28;;
47251;SDS011;32991;51.374;11.586;2022-08-19T09:29:14;610.03;;;526.08;;
47251;SDS011;32991;51.374;11.586;2022-08-19T09:31:42;593.58;;;505.45;;
47251;SDS011;32991;51.374;11.586;2022-08-19T09:34:09;596.30;;;532.35;;
47251;SDS011;32991;51.374;11.586;2022-08-19T09:36:47;611.13;;;535.42;;
47251;SDS011;32991;51.374;11.586;2022-08-19T09:39:16;590.13;;;527.33;;
47251;SDS011;32991;51.374;11.586;2022-08-19T09:41:43;582.35;;;513.15;;
47251;SDS011;32991;51.374;11.586;2022-08-19T09:44:14;532.80;;;468.10;;
47251;SDS011;32991;51.374;11.586;2022-08-19T09:46:40;595.15;;;529.58;;
47251;SDS011;32991;51.374;11.586;2022-08-19T09:49:08;617.17;;;514.55;;
47251;SDS011;32991;51.374;11.586;2022-08-19T09:51:34;415.02;;;353.17;;
47251;SDS011;32991;51.374;11.586;2022-08-19T09:54:03;460.42;;;390.40;;
47251;SDS011;32991;51.374;11.586;2022-08-19T09:56:30;595.08;;;501.02;;
47251;SDS011;32991;51.374;11.586;2022-08-19T09:58:59;590.78;;;522.38;;
47251;SDS011;32991;51.374;11.586;2022-08-19T10:01:28;598.67;;;528.00;;
47251;SDS011;32991;51.374;11.586;2022-08-19T10:03:57;551.50;;;490.63;;
47251;SDS011;32991;51.374;11.586;2022-08-19T10:06:28;582.42;;;518.17;;
47251;SDS011;32991;51.374;11.586;2022-08-19T10:09:11;582.38;;;508.83;;
47251;SDS011;32991;51.374;11.586;2022-08-19T10:11:39;566.38;;;501.13;;
47251;SDS011;32991;51.374;11.586;2022-08-19T10:14:19;541.85;;;467.63;;
47251;SDS011;32991;51.374;11.586;2022-08-19T10:16:48;575.67;;;507.23;;
47251;SDS011;32991;51.374;11.586;2022-08-19T10:19:18;527.60;;;470.98;;
47251;SDS011;32991;51.374;11.586;2022-08-19T10:21:51;547.42;;;482.40;;
47251;SDS011;32991;51.374;11.586;2022-08-19T10:24:26;585.63;;;520.10;;
47251;SDS011;32991;51.374;11.586;2022-08-19T10:26:54;580.90;;;519.28;;
47251;SDS011;32991;51.374;11.586;2022-08-19T10:29:26;572.25;;;497.85;;
47251;SDS011;32991;51.374;11.586;2022-08-19T10:32:01;557.92;;;499.40;;
47251;SDS011;32991;51.374;11.586;2022-08-19T10:34:38;518.78;;;452.38;;
47251;SDS011;32991;51.374;11.586;2022-08-19T10:37:14;534.25;;;463.25;;
47251;SDS011;32991;51.374;11.586;2022-08-19T10:39:49;460.80;;;400.73;;
47251;SDS011;32991;51.374;11.586;2022-08-19T10:42:17;514.60;;;461.17;;
47251;SDS011;32991;51.374;11.586;2022-08-19T10:44:45;463.55;;;406.05;;
47251;SDS011;32991;51.374;11.586;2022-08-19T10:47:13;548.88;;;468.92;;
47251;SDS011;32991;51.374;11.586;2022-08-19T10:49:50;545.17;;;488.02;;
47251;SDS011;32991;51.374;11.586;2022-08-19T10:52:37;541.88;;;480.02;;
47251;SDS011;32991;51.374;11.586;2022-08-19T10:55:15;567.38;;;493.05;;
47251;SDS011;32991;51.374;11.586;2022-08-19T10:58:10;569.20;;;503.48;;
47251;SDS011;32991;51.374;11.586;2022-08-19T11:00:42;548.05;;;487.10;;
47251;SDS011;32991;51.374;11.586;2022-08-19T11:03:10;503.95;;;429.63;;
47251;SDS011;32991;51.374;11.586;2022-08-19T11:05:36;469.52;;;407.33;;
47251;SDS011;32991;51.374;11.586;2022-08-19T11:08:05;532.00;;;474.58;;
47251;SDS011;32991;51.374;11.586;2022-08-19T11:10:48;524.42;;;466.60;;
47251;SDS011;32991;51.374;11.586;2022-08-19T11:13:16;434.23;;;377.95;;
47251;SDS011;32991;51.374;11.586;2022-08-19T11:15:43;543.35;;;484.70;;
47251;SDS011;32991;51.374;11.586;2022-08-19T11:18:13;530.65;;;472.95;;
47251;SDS011;32991;51.374;11.586;2022-08-19T11:20:40;550.40;;;492.38;;
47251;SDS011;32991;51.374;11.586;2022-08-19T11:23:07;544.05;;;487.63;;
47251;SDS011;32991;51.374;11.586;2022-08-19T11:25:34;515.45;;;461.08;;
47251;SDS011;32991;51.374;11.586;2022-08-19T11:28:04;506.48;;;451.65;;
47251;SDS011;32991;51.374;11.586;2022-08-19T11:30:31;493.00;;;439.10;;
47251;SDS011;32991;51.374;11.586;2022-08-19T11:32:58;511.70;;;457.42;;
47251;SDS011;32991;51.374;11.586;2022-08-19T11:35:26;516.53;;;460.08;;
47251;SDS011;32991;51.374;11.586;2022-08-19T11:37:54;519.05;;;438.30;;
47251;SDS011;32991;51.374;11.586;2022-08-19T11:40:22;551.67;;;495.13;;
47251;SDS011;32991;51.374;11.586;2022-08-19T11:42:49;464.48;;;410.25;;
47251;SDS011;32991;51.374;11.586;2022-08-19T11:45:23;426.47;;;368.80;;
47251;SDS011;32991;51.374;11.586;2022-08-19T11:47:51;479.70;;;428.88;;
47251;SDS011;32991;51.374;11.586;2022-08-19T11:50:19;421.33;;;375.42;;
47251;SDS011;32991;51.374;11.586;2022-08-19T11:52:46;503.15;;;449.98;;
47251;SDS011;32991;51.374;11.586;2022-08-19T11:55:13;473.73;;;423.15;;
47251;SDS011;32991;51.374;11.586;2022-08-19T11:57:40;445.00;;;392.75;;
47251;SDS011;32991;51.374;11.586;2022-08-19T12:00:09;446.30;;;398.25;;
47251;SDS011;32991;51.374;11.586;2022-08-19T12:02:39;482.70;;;429.17;;
47251;SDS011;32991;51.374;11.586;2022-08-19T12:05:06;462.08;;;409.88;;
47251;SDS011;32991;51.374;11.586;2022-08-19T12:07:38;367.40;;;326.98;;
47251;SDS011;32991;51.374;11.586;2022-08-19T12:10:06;486.42;;;433.85;;
47251;SDS011;32991;51.374;11.586;2022-08-19T12:12:34;462.98;;;414.17;;
47251;SDS011;32991;51.374;11.586;2022-08-19T12:15:01;476.00;;;424.58;;
47251;SDS011;32991;51.374;11.586;2022-08-19T12:17:28;515.65;;;461.50;;
47251;SDS011;32991;51.374;11.586;2022-08-19T12:19:56;501.35;;;448.80;;
47251;SDS011;32991;51.374;11.586;2022-08-19T12:22:23;459.35;;;409.08;;
47251;SDS011;32991;51.374;11.586;2022-08-19T12:24:50;443.38;;;379.15;;
47251;SDS011;32991;51.374;11.586;2022-08-19T12:27:19;502.50;;;442.70;;
47251;SDS011;32991;51.374;11.586;2022-08-19T12:30:07;521.13;;;464.30;;
47251;SDS011;32991;51.374;11.586;2022-08-19T12:32:35;507.75;;;450.15;;
47251;SDS011;32991;51.374;11.586;2022-08-19T12:35:03;482.15;;;410.23;;
47251;SDS011;32991;51.374;11.586;2022-08-19T12:37:30;561.40;;;467.88;;
47251;SDS011;32991;51.374;11.586;2022-08-19T12:39:58;483.08;;;430.98;;
47251;SDS011;32991;51.374;11.586;2022-08-19T12:42:26;519.60;;;464.02;;
47251;SDS011;32991;51.374;11.586;2022-08-19T12:44:53;546.20;;;488.17;;
47251;SDS011;32991;51.374;11.586;2022-08-19T12:47:20;514.05;;;445.90;;
47251;SDS011;32991;51.374;11.586;2022-08-19T12:49:47;486.42;;;433.83;;
47251;SDS011;32991;51.374;11.586;2022-08-19T12:54:53;489.85;;;437.15;;
47251;SDS011;32991;51.374;11.586;2022-08-19T12:57:22;470.17;;;397.38;;
47251;SDS011;32991;51.374;11.586;2022-08-19T12:59:59;447.38;;;399.45;;
47251;SDS011;32991;51.374;11.586;2022-08-19T13:02:26;349.50;;;312.60;;
47251;SDS011;32991;51.374;11.586;2022-08-19T13:04:53;432.60;;;387.42;;
47251;SDS011;32991;51.374;11.586;2022-08-19T13:07:20;426.42;;;382.50;;
47251;SDS011;32991;51.374;11.586;2022-08-19T13:09:47;443.70;;;396.20;;
47251;SDS011;32991;51.374;11.586;2022-08-19T13:12:17;426.85;;;383.35;;
47251;SDS011;32991;51.374;11.586;2022-08-19T13:14:50;450.83;;;400.90;;
47251;SDS011;32991;51.374;11.586;2022-08-19T13:17:18;464.25;;;415.05;;
47251;SDS011;32991;51.374;11.586;2022-08-19T13:19:45;412.02;;;368.38;;
47251;SDS011;32991;51.374;11.586;2022-08-19T13:22:12;433.67;;;389.77;;
47251;SDS011;32991;51.374;11.586;2022-08-19T13:24:40;408.75;;;366.38;;
47251;SDS011;32991;51.374;11.586;2022-08-19T13:27:12;420.38;;;379.80;;
47251;SDS011;32991;51.374;11.586;2022-08-19T13:29:40;411.98;;;367.65;;
47251;SDS011;32991;51.374;11.586;2022-08-19T13:32:26;385.90;;;345.13;;
47251;SDS011;32991;51.374;11.586;2022-08-19T13:35:14;304.67;;;273.98;;
47251;SDS011;32991;51.374;11.586;2022-08-19T13:37:42;375.58;;;335.67;;
47251;SDS011;32991;51.374;11.586;2022-08-19T13:40:12;411.85;;;370.02;;
47251;SDS011;32991;51.374;11.586;2022-08-19T13:42:51;432.92;;;387.02;;
47251;SDS011;32991;51.374;11.586;2022-08-19T13:45:20;411.88;;;370.00;;
47251;SDS011;32991;51.374;11.586;2022-08-19T13:47:51;441.60;;;397.38;;
47251;SDS011;32991;51.374;11.586;2022-08-19T13:50:27;416.75;;;374.27;;
47251;SDS011;32991;51.374;11.586;2022-08-19T13:52:55;415.05;;;374.02;;
47251;SDS011;32991;51.374;11.586;2022-08-19T13:55:22;331.95;;;296.73;;
47251;SDS011;32991;51.374;11.586;2022-08-19T13:57:51;401.15;;;360.80;;
47251;SDS011;32991;51.374;11.586;2022-08-19T14:00:22;392.08;;;349.95;;
47251;SDS011;32991;51.374;11.586;2022-08-19T14:02:53;425.63;;;379.98;;
47251;SDS011;32991;51.374;11.586;2022-08-19T14:05:21;427.55;;;384.90;;
47251;SDS011;32991;51.374;11.586;2022-08-19T14:07:49;435.65;;;389.60;;
47251;SDS011;32991;51.374;11.586;2022-08-19T14:10:16;428.05;;;383.67;;
47251;SDS011;32991;51.374;11.586;2022-08-19T14:12:43;424.55;;;380.52;;
47251;SDS011;32991;51.374;11.586;2022-08-19T14:15:11;422.92;;;378.20;;